sensor_id;sensor_type;location;lat;lon;timestamp;P1;durP1;ratioP1;P2;durP2;ratioP2
26102;SDS011;32703;49.182;9.042;2022-08-19T00:00:23;9.25;;;5.32;;
26102;SDS011;32703;49.182;9.042;2022-08-19T00:02:49;11.63;;;5.75;;
26102;SDS011;32703;49.182;9.042;2022-08-19T00:05:14;9.20;;;5.53;;
26102;SDS011;32703;49.182;9.042;2022-08-19T00:07:41;10.57;;;5.40;;
26102;SDS011;32703;49.182;9.042;2022-08-19T00:10:08;8.93;;;5.85;;
26102;SDS011;32703;49.182;9.042;2022-08-19T00:12:35;8.82;;;5.45;;
26102;SDS011;32703;49.182;9.042;2022-08-19T00:15:02;9.48;;;5.13;;
26102;SDS011;32703;49.182;9.042;2022-08-19T00:17:35;7.85;;;4.70;;
26102;SDS011;32703;49.182;9.042;2022-08-19T00:20:01;9.65;;;5.43;;
26102;SDS011;32703;49.182;9.042;2022-08-19T00:22:27;7.65;;;4.78;;
26102;SDS011;32703;49.182;9.042;2022-08-19T00:24:53;9.40;;;5.32;;
26102;SDS011;32703;49.182;9.042;2022-08-19T00:27:19;7.90;;;5.22;;
26102;SDS011;32703;49.182;9.042;2022-08-19T00:29:44;9.35;;;5.80;;
26102;SDS011;32703;49.182;9.042;2022-08-19T00:32:10;8.90;;;5.22;;
26102;SDS011;32703;49.182;9.042;2022-08-19T00:34:37;9.45;;;5.35;;
26102;SDS011;32703;49.182;9.042;2022-08-19T00:37:02;7.05;;;4.70;;
26102;SDS011;32703;49.182;9.042;2022-08-19T00:39:28;10.15;;;5.43;;
26102;SDS011;32703;49.182;9.042;2022-08-19T00:41:54;9.15;;;5.47;;
26102;SDS011;32703;49.182;9.042;2022-08-19T00:44:23;9.15;;;5.45;;
26102;SDS011;32703;49.182;9.042;2022-08-19T00:46:53;12.55;;;5.60;;
26102;SDS011;32703;49.182;9.042;2022-08-19T00:52:23;10.50;;;5.65;;
26102;SDS011;32703;49.182;9.042;2022-08-19T00:54:54;9.77;;;5.45;;
26102;SDS011;32703;49.182;9.042;2022-08-19T00:57:23;9.40;;;5.43;;
26102;SDS011;32703;49.182;9.042;2022-08-19T00:59:53;10.20;;;5.90;;
26102;SDS011;32703;49.182;9.042;2022-08-19T01:02:20;10.35;;;5.90;;
26102;SDS011;32703;49.182;9.042;2022-08-19T01:04:45;9.75;;;5.25;;
26102;SDS011;32703;49.182;9.042;2022-08-19T01:07:11;12.73;;;6.55;;
26102;SDS011;32703;49.182;9.042;2022-08-19T01:09:38;10.80;;;5.55;;
26102;SDS011;32703;49.182;9.042;2022-08-19T01:12:03;11.75;;;6.60;;
26102;SDS011;32703;49.182;9.042;2022-08-19T01:14:29;11.93;;;6.15;;
26102;SDS011;32703;49.182;9.042;2022-08-19T01:16:56;11.25;;;5.65;;
26102;SDS011;32703;49.182;9.042;2022-08-19T01:19:27;12.07;;;6.22;;
26102;SDS011;32703;49.182;9.042;2022-08-19T01:22:14;11.38;;;5.97;;
26102;SDS011;32703;49.182;9.042;2022-08-19T01:24:44;10.65;;;5.85;;
26102;SDS011;32703;49.182;9.042;2022-08-19T01:27:10;10.80;;;5.57;;
26102;SDS011;32703;49.182;9.042;2022-08-19T01:29:37;9.02;;;5.25;;
26102;SDS011;32703;49.182;9.042;2022-08-19T01:32:04;11.95;;;5.90;;
26102;SDS011;32703;49.182;9.042;2022-08-19T01:34:31;12.88;;;6.20;;
26102;SDS011;32703;49.182;9.042;2022-08-19T01:36:58;11.07;;;5.68;;
26102;SDS011;32703;49.182;9.042;2022-08-19T01:39:26;13.98;;;5.35;;
26102;SDS011;32703;49.182;9.042;2022-08-19T01:41:53;12.38;;;6.30;;
26102;SDS011;32703;49.182;9.042;2022-08-19T01:44:20;11.10;;;5.28;;
26102;SDS011;32703;49.182;9.042;2022-08-19T01:46:48;9.13;;;5.03;;
26102;SDS011;32703;49.182;9.042;2022-08-19T01:49:15;11.43;;;5.13;;
26102;SDS011;32703;49.182;9.042;2022-08-19T01:51:42;8.82;;;5.05;;
26102;SDS011;32703;49.182;9.042;2022-08-19T01:54:08;8.23;;;4.88;;
26102;SDS011;32703;49.182;9.042;2022-08-19T01:56:36;9.65;;;5.13;;
26102;SDS011;32703;49.182;9.042;2022-08-19T01:59:05;8.98;;;5.60;;
26102;SDS011;32703;49.182;9.042;2022-08-19T02:01:35;8.95;;;5.40;;
26102;SDS011;32703;49.182;9.042;2022-08-19T02:04:01;9.98;;;5.00;;
26102;SDS011;32703;49.182;9.042;2022-08-19T02:06:26;10.55;;;5.63;;
26102;SDS011;32703;49.182;9.042;2022-08-19T02:08:52;9.60;;;5.20;;
26102;SDS011;32703;49.182;9.042;2022-08-19T02:11:22;11.90;;;6.68;;
26102;SDS011;32703;49.182;9.042;2022-08-19T02:13:59;10.35;;;6.05;;
26102;SDS011;32703;49.182;9.042;2022-08-19T02:16:27;9.85;;;5.78;;
26102;SDS011;32703;49.182;9.042;2022-08-19T02:18:53;9.82;;;5.47;;
26102;SDS011;32703;49.182;9.042;2022-08-19T02:21:20;9.20;;;6.10;;
26102;SDS011;32703;49.182;9.042;2022-08-19T02:23:47;11.02;;;5.78;;
26102;SDS011;32703;49.182;9.042;2022-08-19T02:26:13;11.55;;;6.18;;
26102;SDS011;32703;49.182;9.042;2022-08-19T02:28:39;10.98;;;6.03;;
26102;SDS011;32703;49.182;9.042;2022-08-19T02:31:13;12.95;;;6.43;;
26102;SDS011;32703;49.182;9.042;2022-08-19T02:33:41;12.65;;;5.93;;
26102;SDS011;32703;49.182;9.042;2022-08-19T02:36:07;12.10;;;6.07;;
26102;SDS011;32703;49.182;9.042;2022-08-19T02:38:34;10.35;;;5.88;;
26102;SDS011;32703;49.182;9.042;2022-08-19T02:41:03;16.30;;;6.93;;
26102;SDS011;32703;49.182;9.042;2022-08-19T02:43:32;10.02;;;5.22;;
26102;SDS011;32703;49.182;9.042;2022-08-19T02:46:01;12.18;;;6.45;;
26102;SDS011;32703;49.182;9.042;2022-08-19T02:48:36;14.80;;;5.78;;
26102;SDS011;32703;49.182;9.042;2022-08-19T02:51:01;11.23;;;6.35;;
26102;SDS011;32703;49.182;9.042;2022-08-19T02:53:27;13.43;;;6.75;;
26102;SDS011;32703;49.182;9.042;2022-08-19T02:55:54;12.68;;;6.20;;
26102;SDS011;32703;49.182;9.042;2022-08-19T02:58:20;14.55;;;6.82;;
26102;SDS011;32703;49.182;9.042;2022-08-19T03:00:48;10.75;;;6.28;;
26102;SDS011;32703;49.182;9.042;2022-08-19T03:03:17;11.90;;;6.45;;
26102;SDS011;32703;49.182;9.042;2022-08-19T03:05:44;11.95;;;6.38;;
26102;SDS011;32703;49.182;9.042;2022-08-19T03:08:10;11.35;;;5.70;;
26102;SDS011;32703;49.182;9.042;2022-08-19T03:10:44;12.50;;;6.40;;
26102;SDS011;32703;49.182;9.042;2022-08-19T03:13:12;12.40;;;6.38;;
26102;SDS011;32703;49.182;9.042;2022-08-19T03:15:40;13.75;;;6.43;;
26102;SDS011;32703;49.182;9.042;2022-08-19T03:18:07;11.95;;;6.03;;
26102;SDS011;32703;49.182;9.042;2022-08-19T03:20:33;10.73;;;5.95;;
26102;SDS011;32703;49.182;9.042;2022-08-19T03:22:59;13.70;;;6.07;;
26102;SDS011;32703;49.182;9.042;2022-08-19T03:25:24;12.02;;;6.60;;
26102;SDS011;32703;49.182;9.042;2022-08-19T03:27:50;12.60;;;6.30;;
26102;SDS011;32703;49.182;9.042;2022-08-19T03:30:15;15.95;;;7.07;;
26102;SDS011;32703;49.182;9.042;2022-08-19T03:32:41;14.70;;;6.50;;
26102;SDS011;32703;49.182;9.042;2022-08-19T03:35:06;12.00;;;6.60;;
26102;SDS011;32703;49.182;9.042;2022-08-19T03:37:32;13.90;;;7.35;;
26102;SDS011;32703;49.182;9.042;2022-08-19T03:39:58;13.93;;;6.82;;
26102;SDS011;32703;49.182;9.042;2022-08-19T03:42:23;11.15;;;6.05;;
26102;SDS011;32703;49.182;9.042;2022-08-19T03:44:52;11.98;;;6.32;;
26102;SDS011;32703;49.182;9.042;2022-08-19T03:47:17;14.45;;;6.32;;
26102;SDS011;32703;49.182;9.042;2022-08-19T03:49:43;11.52;;;5.78;;
26102;SDS011;32703;49.182;9.042;2022-08-19T03:52:09;12.48;;;6.03;;
26102;SDS011;32703;49.182;9.042;2022-08-19T03:54:35;14.65;;;6.80;;
26102;SDS011;32703;49.182;9.042;2022-08-19T03:57:02;10.48;;;6.18;;
26102;SDS011;32703;49.182;9.042;2022-08-19T03:59:30;12.05;;;6.45;;
26102;SDS011;32703;49.182;9.042;2022-08-19T04:02:00;12.10;;;6.70;;
26102;SDS011;32703;49.182;9.042;2022-08-19T04:04:27;18.60;;;7.35;;
26102;SDS011;32703;49.182;9.042;2022-08-19T04:06:54;14.18;;;6.60;;
26102;SDS011;32703;49.182;9.042;2022-08-19T04:09:20;15.38;;;7.20;;
26102;SDS011;32703;49.182;9.042;2022-08-19T04:11:49;12.70;;;6.82;;
26102;SDS011;32703;49.182;9.042;2022-08-19T04:14:19;13.15;;;6.65;;
26102;SDS011;32703;49.182;9.042;2022-08-19T04:16:46;12.02;;;6.30;;
26102;SDS011;32703;49.182;9.042;2022-08-19T04:19:13;14.40;;;6.25;;
26102;SDS011;32703;49.182;9.042;2022-08-19T04:21:40;13.98;;;6.53;;
26102;SDS011;32703;49.182;9.042;2022-08-19T04:24:09;15.48;;;6.97;;
26102;SDS011;32703;49.182;9.042;2022-08-19T04:26:36;11.95;;;6.10;;
26102;SDS011;32703;49.182;9.042;2022-08-19T04:29:10;12.68;;;6.53;;
26102;SDS011;32703;49.182;9.042;2022-08-19T04:31:41;14.35;;;7.07;;
26102;SDS011;32703;49.182;9.042;2022-08-19T04:34:09;13.90;;;6.97;;
26102;SDS011;32703;49.182;9.042;2022-08-19T04:36:36;13.45;;;7.22;;
26102;SDS011;32703;49.182;9.042;2022-08-19T04:39:08;12.10;;;7.05;;
26102;SDS011;32703;49.182;9.042;2022-08-19T04:41:35;12.68;;;6.57;;
26102;SDS011;32703;49.182;9.042;2022-08-19T04:44:21;12.52;;;5.57;;
26102;SDS011;32703;49.182;9.042;2022-08-19T04:46:46;13.38;;;7.18;;
26102;SDS011;32703;49.182;9.042;2022-08-19T04:49:14;11.05;;;6.35;;
26102;SDS011;32703;49.182;9.042;2022-08-19T04:51:42;16.08;;;7.20;;
26102;SDS011;32703;49.182;9.042;2022-08-19T04:54:09;14.82;;;7.40;;
26102;SDS011;32703;49.182;9.042;2022-08-19T04:56:35;16.42;;;7.82;;
26102;SDS011;32703;49.182;9.042;2022-08-19T04:59:00;16.83;;;7.45;;
26102;SDS011;32703;49.182;9.042;2022-08-19T05:01:29;14.43;;;7.03;;
26102;SDS011;32703;49.182;9.042;2022-08-19T05:03:57;13.90;;;6.97;;
26102;SDS011;32703;49.182;9.042;2022-08-19T05:06:24;15.63;;;7.07;;
26102;SDS011;32703;49.182;9.042;2022-08-19T05:08:50;15.98;;;7.07;;
26102;SDS011;32703;49.182;9.042;2022-08-19T05:11:17;12.50;;;6.88;;
26102;SDS011;32703;49.182;9.042;2022-08-19T05:13:49;17.58;;;7.35;;
26102;SDS011;32703;49.182;9.042;2022-08-19T05:16:16;15.38;;;7.88;;
26102;SDS011;32703;49.182;9.042;2022-08-19T05:18:43;16.02;;;7.82;;
26102;SDS011;32703;49.182;9.042;2022-08-19T05:21:28;15.60;;;7.32;;
26102;SDS011;32703;49.182;9.042;2022-08-19T05:24:13;14.90;;;7.35;;
26102;SDS011;32703;49.182;9.042;2022-08-19T05:26:40;14.60;;;7.28;;
26102;SDS011;32703;49.182;9.042;2022-08-19T05:29:09;16.95;;;7.93;;
26102;SDS011;32703;49.182;9.042;2022-08-19T05:31:35;15.32;;;7.28;;
26102;SDS011;32703;49.182;9.042;2022-08-19T05:34:03;16.35;;;7.53;;
26102;SDS011;32703;49.182;9.042;2022-08-19T05:36:33;13.40;;;7.13;;
26102;SDS011;32703;49.182;9.042;2022-08-19T05:39:13;14.63;;;7.07;;
26102;SDS011;32703;49.182;9.042;2022-08-19T05:41:42;15.20;;;8.43;;
26102;SDS011;32703;49.182;9.042;2022-08-19T05:44:09;13.90;;;7.07;;
26102;SDS011;32703;49.182;9.042;2022-08-19T05:46:36;16.27;;;7.60;;
26102;SDS011;32703;49.182;9.042;2022-08-19T05:49:03;13.45;;;6.97;;
26102;SDS011;32703;49.182;9.042;2022-08-19T05:51:30;16.00;;;7.05;;
26102;SDS011;32703;49.182;9.042;2022-08-19T05:53:57;18.10;;;8.25;;
26102;SDS011;32703;49.182;9.042;2022-08-19T05:56:23;13.73;;;7.00;;
26102;SDS011;32703;49.182;9.042;2022-08-19T05:58:48;14.18;;;6.80;;
26102;SDS011;32703;49.182;9.042;2022-08-19T06:01:15;13.75;;;6.55;;
26102;SDS011;32703;49.182;9.042;2022-08-19T06:03:43;13.52;;;7.07;;
26102;SDS011;32703;49.182;9.042;2022-08-19T06:06:10;17.25;;;7.32;;
26102;SDS011;32703;49.182;9.042;2022-08-19T06:08:38;11.75;;;6.32;;
26102;SDS011;32703;49.182;9.042;2022-08-19T06:11:14;14.18;;;7.40;;
26102;SDS011;32703;49.182;9.042;2022-08-19T06:13:40;14.35;;;7.20;;
26102;SDS011;32703;49.182;9.042;2022-08-19T06:16:06;13.23;;;6.70;;
26102;SDS011;32703;49.182;9.042;2022-08-19T06:18:31;16.25;;;7.00;;
26102;SDS011;32703;49.182;9.042;2022-08-19T06:20:58;14.32;;;6.75;;
26102;SDS011;32703;49.182;9.042;2022-08-19T06:23:23;12.10;;;6.78;;
26102;SDS011;32703;49.182;9.042;2022-08-19T06:25:50;13.27;;;7.15;;
26102;SDS011;32703;49.182;9.042;2022-08-19T06:28:16;14.80;;;7.32;;
26102;SDS011;32703;49.182;9.042;2022-08-19T06:30:41;12.75;;;6.78;;
26102;SDS011;32703;49.182;9.042;2022-08-19T06:33:07;11.93;;;6.75;;
26102;SDS011;32703;49.182;9.042;2022-08-19T06:35:32;12.73;;;6.18;;
26102;SDS011;32703;49.182;9.042;2022-08-19T06:38:03;11.85;;;6.15;;
26102;SDS011;32703;49.182;9.042;2022-08-19T06:40:29;11.15;;;6.53;;
26102;SDS011;32703;49.182;9.042;2022-08-19T06:42:55;13.23;;;7.25;;
26102;SDS011;32703;49.182;9.042;2022-08-19T06:45:23;13.32;;;7.13;;
26102;SDS011;32703;49.182;9.042;2022-08-19T06:47:49;12.10;;;6.53;;
26102;SDS011;32703;49.182;9.042;2022-08-19T06:50:14;12.00;;;6.25;;
26102;SDS011;32703;49.182;9.042;2022-08-19T06:52:40;11.82;;;6.03;;
26102;SDS011;32703;49.182;9.042;2022-08-19T06:55:06;17.67;;;8.23;;
26102;SDS011;32703;49.182;9.042;2022-08-19T06:57:32;11.82;;;6.68;;
26102;SDS011;32703;49.182;9.042;2022-08-19T06:59:58;16.60;;;7.63;;
26102;SDS011;32703;49.182;9.042;2022-08-19T07:02:25;14.88;;;6.40;;
26102;SDS011;32703;49.182;9.042;2022-08-19T07:04:51;14.65;;;7.50;;
26102;SDS011;32703;49.182;9.042;2022-08-19T07:07:17;11.45;;;6.38;;
26102;SDS011;32703;49.182;9.042;2022-08-19T07:09:44;12.95;;;6.68;;
26102;SDS011;32703;49.182;9.042;2022-08-19T07:12:11;12.73;;;6.68;;
26102;SDS011;32703;49.182;9.042;2022-08-19T07:14:40;14.95;;;6.72;;
26102;SDS011;32703;49.182;9.042;2022-08-19T07:17:06;13.57;;;6.53;;
26102;SDS011;32703;49.182;9.042;2022-08-19T07:19:34;13.02;;;6.85;;
26102;SDS011;32703;49.182;9.042;2022-08-19T07:22:01;13.50;;;6.55;;
26102;SDS011;32703;49.182;9.042;2022-08-19T07:24:29;15.55;;;6.63;;
26102;SDS011;32703;49.182;9.042;2022-08-19T07:26:56;12.48;;;6.65;;
26102;SDS011;32703;49.182;9.042;2022-08-19T07:29:26;16.08;;;6.70;;
26102;SDS011;32703;49.182;9.042;2022-08-19T07:31:52;10.00;;;6.47;;
26102;SDS011;32703;49.182;9.042;2022-08-19T07:34:21;14.18;;;6.97;;
26102;SDS011;32703;49.182;9.042;2022-08-19T07:36:47;12.73;;;6.88;;
26102;SDS011;32703;49.182;9.042;2022-08-19T07:39:36;12.90;;;6.88;;
26102;SDS011;32703;49.182;9.042;2022-08-19T07:42:03;11.57;;;6.03;;
26102;SDS011;32703;49.182;9.042;2022-08-19T07:44:31;10.75;;;5.70;;
26102;SDS011;32703;49.182;9.042;2022-08-19T07:46:58;12.95;;;6.80;;
26102;SDS011;32703;49.182;9.042;2022-08-19T07:49:25;13.20;;;6.75;;
26102;SDS011;32703;49.182;9.042;2022-08-19T07:51:53;13.45;;;6.47;;
26102;SDS011;32703;49.182;9.042;2022-08-19T07:54:31;9.73;;;5.45;;
26102;SDS011;32703;49.182;9.042;2022-08-19T07:57:00;8.48;;;5.45;;
26102;SDS011;32703;49.182;9.042;2022-08-19T07:59:27;12.05;;;6.63;;
26102;SDS011;32703;49.182;9.042;2022-08-19T08:01:54;9.00;;;5.85;;
26102;SDS011;32703;49.182;9.042;2022-08-19T08:04:20;9.02;;;4.95;;
26102;SDS011;32703;49.182;9.042;2022-08-19T08:07:05;10.65;;;5.30;;
26102;SDS011;32703;49.182;9.042;2022-08-19T08:09:50;13.02;;;5.85;;
26102;SDS011;32703;49.182;9.042;2022-08-19T08:12:18;8.27;;;4.82;;
26102;SDS011;32703;49.182;9.042;2022-08-19T08:14:51;8.05;;;4.78;;
26102;SDS011;32703;49.182;9.042;2022-08-19T08:17:19;7.13;;;4.30;;
26102;SDS011;32703;49.182;9.042;2022-08-19T08:19:48;8.35;;;4.88;;
26102;SDS011;32703;49.182;9.042;2022-08-19T08:22:15;8.30;;;5.00;;
26102;SDS011;32703;49.182;9.042;2022-08-19T08:25:15;9.13;;;4.30;;
26102;SDS011;32703;49.182;9.042;2022-08-19T08:27:44;9.40;;;4.93;;
26102;SDS011;32703;49.182;9.042;2022-08-19T08:30:12;9.65;;;5.47;;
26102;SDS011;32703;49.182;9.042;2022-08-19T08:32:40;7.97;;;4.60;;
26102;SDS011;32703;49.182;9.042;2022-08-19T08:35:07;9.13;;;4.78;;
26102;SDS011;32703;49.182;9.042;2022-08-19T08:37:35;11.60;;;5.40;;
26102;SDS011;32703;49.182;9.042;2022-08-19T08:40:02;11.57;;;5.63;;
26102;SDS011;32703;49.182;9.042;2022-08-19T08:42:45;11.43;;;4.82;;
26102;SDS011;32703;49.182;9.042;2022-08-19T08:45:43;9.35;;;4.55;;
26102;SDS011;32703;49.182;9.042;2022-08-19T08:48:17;7.15;;;4.80;;
26102;SDS011;32703;49.182;9.042;2022-08-19T08:50:47;6.22;;;4.55;;
26102;SDS011;32703;49.182;9.042;2022-08-19T08:53:18;8.93;;;5.18;;
26102;SDS011;32703;49.182;9.042;2022-08-19T08:55:44;11.80;;;4.70;;
26102;SDS011;32703;49.182;9.042;2022-08-19T08:58:16;7.05;;;4.38;;
26102;SDS011;32703;49.182;9.042;2022-08-19T09:00:46;6.97;;;4.50;;
26102;SDS011;32703;49.182;9.042;2022-08-19T09:03:18;8.35;;;4.78;;
26102;SDS011;32703;49.182;9.042;2022-08-19T09:08:22;7.22;;;4.15;;
26102;SDS011;32703;49.182;9.042;2022-08-19T09:10:55;8.25;;;5.18;;
26102;SDS011;32703;49.182;9.042;2022-08-19T09:16:02;7.60;;;4.43;;
26102;SDS011;32703;49.182;9.042;2022-08-19T09:18:38;9.68;;;5.22;;
26102;SDS011;32703;49.182;9.042;2022-08-19T09:21:05;8.88;;;4.10;;
26102;SDS011;32703;49.182;9.042;2022-08-19T09:23:36;7.50;;;3.85;;
26102;SDS011;32703;49.182;9.042;2022-08-19T09:26:06;7.97;;;4.35;;
26102;SDS011;32703;49.182;9.042;2022-08-19T09:28:33;4.93;;;3.47;;
26102;SDS011;32703;49.182;9.042;2022-08-19T09:30:59;4.55;;;3.20;;
26102;SDS011;32703;49.182;9.042;2022-08-19T09:33:25;7.70;;;4.15;;
26102;SDS011;32703;49.182;9.042;2022-08-19T09:36:00;5.25;;;3.30;;
26102;SDS011;32703;49.182;9.042;2022-08-19T09:38:28;11.43;;;3.60;;
26102;SDS011;32703;49.182;9.042;2022-08-19T09:40:53;5.55;;;3.45;;
26102;SDS011;32703;49.182;9.042;2022-08-19T09:43:19;5.18;;;3.35;;
26102;SDS011;32703;49.182;9.042;2022-08-19T09:45:44;5.60;;;3.65;;
26102;SDS011;32703;49.182;9.042;2022-08-19T09:48:10;8.15;;;4.00;;
26102;SDS011;32703;49.182;9.042;2022-08-19T09:50:35;5.43;;;3.95;;
26102;SDS011;32703;49.182;9.042;2022-08-19T09:53:03;5.85;;;3.90;;
26102;SDS011;32703;49.182;9.042;2022-08-19T09:55:31;4.85;;;3.30;;
26102;SDS011;32703;49.182;9.042;2022-08-19T09:57:56;8.50;;;3.65;;
26102;SDS011;32703;49.182;9.042;2022-08-19T10:00:22;5.90;;;4.07;;
26102;SDS011;32703;49.182;9.042;2022-08-19T10:02:47;6.82;;;3.72;;
26102;SDS011;32703;49.182;9.042;2022-08-19T10:05:13;4.75;;;3.33;;
26102;SDS011;32703;49.182;9.042;2022-08-19T10:07:57;5.05;;;3.65;;
26102;SDS011;32703;49.182;9.042;2022-08-19T10:10:24;5.57;;;3.90;;
26102;SDS011;32703;49.182;9.042;2022-08-19T10:12:49;6.68;;;3.15;;
26102;SDS011;32703;49.182;9.042;2022-08-19T10:15:15;6.00;;;3.83;;
26102;SDS011;32703;49.182;9.042;2022-08-19T10:17:41;6.65;;;3.40;;
26102;SDS011;32703;49.182;9.042;2022-08-19T10:20:07;5.35;;;3.80;;
26102;SDS011;32703;49.182;9.042;2022-08-19T10:22:32;5.80;;;3.35;;
26102;SDS011;32703;49.182;9.042;2022-08-19T10:25:00;7.57;;;3.47;;
26102;SDS011;32703;49.182;9.042;2022-08-19T10:27:26;5.10;;;3.30;;
26102;SDS011;32703;49.182;9.042;2022-08-19T10:29:51;4.85;;;3.53;;
26102;SDS011;32703;49.182;9.042;2022-08-19T10:32:17;4.10;;;3.03;;
26102;SDS011;32703;49.182;9.042;2022-08-19T10:34:43;4.05;;;2.85;;
26102;SDS011;32703;49.182;9.042;2022-08-19T10:37:08;3.15;;;2.47;;
26102;SDS011;32703;49.182;9.042;2022-08-19T10:39:35;4.78;;;2.95;;
26102;SDS011;32703;49.182;9.042;2022-08-19T10:42:04;3.15;;;2.55;;
26102;SDS011;32703;49.182;9.042;2022-08-19T10:44:31;4.90;;;2.35;;
26102;SDS011;32703;49.182;9.042;2022-08-19T10:47:00;3.70;;;2.70;;
26102;SDS011;32703;49.182;9.042;2022-08-19T10:49:26;3.53;;;2.50;;
26102;SDS011;32703;49.182;9.042;2022-08-19T10:51:52;4.03;;;2.30;;
26102;SDS011;32703;49.182;9.042;2022-08-19T10:54:36;3.58;;;2.53;;
26102;SDS011;32703;49.182;9.042;2022-08-19T10:57:20;3.60;;;2.80;;
26102;SDS011;32703;49.182;9.042;2022-08-19T10:59:49;2.28;;;2.00;;
26102;SDS011;32703;49.182;9.042;2022-08-19T11:02:14;3.33;;;2.72;;
26102;SDS011;32703;49.182;9.042;2022-08-19T11:04:43;3.35;;;2.63;;
26102;SDS011;32703;49.182;9.042;2022-08-19T11:07:08;3.00;;;2.45;;
26102;SDS011;32703;49.182;9.042;2022-08-19T11:09:37;3.90;;;2.78;;
26102;SDS011;32703;49.182;9.042;2022-08-19T11:12:05;4.53;;;2.63;;
26102;SDS011;32703;49.182;9.042;2022-08-19T11:14:33;4.47;;;2.95;;
26102;SDS011;32703;49.182;9.042;2022-08-19T11:16:59;4.55;;;3.13;;
26102;SDS011;32703;49.182;9.042;2022-08-19T11:19:24;3.97;;;2.65;;
26102;SDS011;32703;49.182;9.042;2022-08-19T11:21:51;3.95;;;2.95;;
26102;SDS011;32703;49.182;9.042;2022-08-19T11:24:21;3.30;;;2.60;;
26102;SDS011;32703;49.182;9.042;2022-08-19T11:26:49;4.95;;;3.50;;
26102;SDS011;32703;49.182;9.042;2022-08-19T11:29:18;4.05;;;2.85;;
26102;SDS011;32703;49.182;9.042;2022-08-19T11:31:46;4.43;;;2.85;;
26102;SDS011;32703;49.182;9.042;2022-08-19T11:34:15;4.90;;;3.30;;
26102;SDS011;32703;49.182;9.042;2022-08-19T11:36:47;4.47;;;3.10;;
26102;SDS011;32703;49.182;9.042;2022-08-19T11:39:15;4.65;;;3.88;;
26102;SDS011;32703;49.182;9.042;2022-08-19T11:41:43;5.43;;;3.45;;
26102;SDS011;32703;49.182;9.042;2022-08-19T11:44:09;3.80;;;3.03;;
26102;SDS011;32703;49.182;9.042;2022-08-19T11:46:35;3.92;;;2.85;;
26102;SDS011;32703;49.182;9.042;2022-08-19T11:49:02;4.30;;;2.90;;
26102;SDS011;32703;49.182;9.042;2022-08-19T11:51:30;4.10;;;3.08;;
26102;SDS011;32703;49.182;9.042;2022-08-19T11:53:58;5.05;;;3.03;;
26102;SDS011;32703;49.182;9.042;2022-08-19T11:56:24;5.20;;;3.72;;
26102;SDS011;32703;49.182;9.042;2022-08-19T11:58:52;5.85;;;3.25;;
26102;SDS011;32703;49.182;9.042;2022-08-19T12:01:19;4.35;;;2.63;;
26102;SDS011;32703;49.182;9.042;2022-08-19T12:03:47;4.40;;;2.92;;
26102;SDS011;32703;49.182;9.042;2022-08-19T12:06:15;4.47;;;2.83;;
26102;SDS011;32703;49.182;9.042;2022-08-19T12:08:48;4.10;;;3.05;;
26102;SDS011;32703;49.182;9.042;2022-08-19T12:11:14;5.85;;;2.92;;
26102;SDS011;32703;49.182;9.042;2022-08-19T12:13:41;4.55;;;3.20;;
26102;SDS011;32703;49.182;9.042;2022-08-19T12:42:03;20.65;;;3.40;;
26102;SDS011;32703;49.182;9.042;2022-08-19T12:44:29;7.88;;;2.63;;
26102;SDS011;32703;49.182;9.042;2022-08-19T12:46:56;3.55;;;2.67;;
26102;SDS011;32703;49.182;9.042;2022-08-19T12:49:22;3.88;;;2.70;;
26102;SDS011;32703;49.182;9.042;2022-08-19T12:51:49;4.85;;;2.70;;
26102;SDS011;32703;49.182;9.042;2022-08-19T12:54:15;3.63;;;2.58;;
26102;SDS011;32703;49.182;9.042;2022-08-19T12:56:40;3.72;;;2.80;;
26102;SDS011;32703;49.182;9.042;2022-08-19T12:59:07;4.95;;;2.50;;
26102;SDS011;32703;49.182;9.042;2022-08-19T13:01:33;3.38;;;2.67;;
26102;SDS011;32703;49.182;9.042;2022-08-19T13:03:59;3.97;;;2.78;;
26102;SDS011;32703;49.182;9.042;2022-08-19T13:06:25;3.00;;;2.70;;
26102;SDS011;32703;49.182;9.042;2022-08-19T13:08:51;3.67;;;2.97;;
26102;SDS011;32703;49.182;9.042;2022-08-19T13:11:17;3.67;;;2.75;;
26102;SDS011;32703;49.182;9.042;2022-08-19T13:13:46;4.45;;;3.40;;
26102;SDS011;32703;49.182;9.042;2022-08-19T13:16:15;6.68;;;3.90;;
26102;SDS011;32703;49.182;9.042;2022-08-19T13:18:41;4.63;;;3.55;;
26102;SDS011;32703;49.182;9.042;2022-08-19T13:21:09;4.00;;;3.20;;
26102;SDS011;32703;49.182;9.042;2022-08-19T13:23:39;3.88;;;3.25;;
26102;SDS011;32703;49.182;9.042;2022-08-19T13:26:06;5.28;;;3.45;;
26102;SDS011;32703;49.182;9.042;2022-08-19T13:28:33;6.38;;;3.10;;
26102;SDS011;32703;49.182;9.042;2022-08-19T13:31:19;4.93;;;3.42;;
26102;SDS011;32703;49.182;9.042;2022-08-19T13:34:05;4.55;;;3.58;;
26102;SDS011;32703;49.182;9.042;2022-08-19T13:36:34;4.45;;;3.35;;
26102;SDS011;32703;49.182;9.042;2022-08-19T13:39:00;6.07;;;3.88;;
26102;SDS011;32703;49.182;9.042;2022-08-19T13:41:26;4.10;;;3.13;;
26102;SDS011;32703;49.182;9.042;2022-08-19T13:43:52;4.80;;;3.33;;
26102;SDS011;32703;49.182;9.042;2022-08-19T13:46:19;3.75;;;3.10;;
26102;SDS011;32703;49.182;9.042;2022-08-19T13:48:45;5.90;;;3.30;;
26102;SDS011;32703;49.182;9.042;2022-08-19T13:51:12;4.70;;;3.47;;
26102;SDS011;32703;49.182;9.042;2022-08-19T13:53:38;5.65;;;3.65;;
26102;SDS011;32703;49.182;9.042;2022-08-19T13:56:07;9.90;;;3.50;;
26102;SDS011;32703;49.182;9.042;2022-08-19T13:58:35;4.93;;;3.65;;
26102;SDS011;32703;49.182;9.042;2022-08-19T14:01:02;7.40;;;3.63;;
26102;SDS011;32703;49.182;9.042;2022-08-19T14:03:29;7.43;;;4.28;;
26102;SDS011;32703;49.182;9.042;2022-08-19T14:05:55;4.55;;;3.70;;
26102;SDS011;32703;49.182;9.042;2022-08-19T14:08:21;6.80;;;4.80;;
26102;SDS011;32703;49.182;9.042;2022-08-19T14:10:47;7.05;;;3.88;;
26102;SDS011;32703;49.182;9.042;2022-08-19T14:13:17;4.97;;;3.53;;
26102;SDS011;32703;49.182;9.042;2022-08-19T14:15:45;6.05;;;4.50;;
26102;SDS011;32703;49.182;9.042;2022-08-19T14:18:11;4.35;;;3.63;;
26102;SDS011;32703;49.182;9.042;2022-08-19T14:20:36;4.38;;;3.67;;
26102;SDS011;32703;49.182;9.042;2022-08-19T14:23:02;4.13;;;3.65;;
26102;SDS011;32703;49.182;9.042;2022-08-19T14:25:31;5.68;;;4.15;;
26102;SDS011;32703;49.182;9.042;2022-08-19T14:27:57;4.78;;;3.65;;
26102;SDS011;32703;49.182;9.042;2022-08-19T14:30:24;4.68;;;3.38;;
26102;SDS011;32703;49.182;9.042;2022-08-19T14:32:52;4.28;;;3.38;;
26102;SDS011;32703;49.182;9.042;2022-08-19T14:35:23;4.13;;;3.22;;
26102;SDS011;32703;49.182;9.042;2022-08-19T14:37:49;4.25;;;3.40;;
26102;SDS011;32703;49.182;9.042;2022-08-19T14:40:19;7.68;;;3.63;;
26102;SDS011;32703;49.182;9.042;2022-08-19T14:42:50;5.57;;;3.38;;
26102;SDS011;32703;49.182;9.042;2022-08-19T14:45:17;5.97;;;3.60;;
26102;SDS011;32703;49.182;9.042;2022-08-19T14:47:42;3.58;;;3.20;;
26102;SDS011;32703;49.182;9.042;2022-08-19T14:59:06;4.45;;;2.72;;
26102;SDS011;32703;49.182;9.042;2022-08-19T15:01:32;3.83;;;3.10;;
26102;SDS011;32703;49.182;9.042;2022-08-19T15:03:57;4.85;;;3.42;;
26102;SDS011;32703;49.182;9.042;2022-08-19T15:06:24;6.18;;;3.47;;
26102;SDS011;32703;49.182;9.042;2022-08-19T15:08:50;7.07;;;3.00;;
26102;SDS011;32703;49.182;9.042;2022-08-19T15:11:17;3.97;;;3.00;;
26102;SDS011;32703;49.182;9.042;2022-08-19T15:13:46;5.00;;;3.00;;
26102;SDS011;32703;49.182;9.042;2022-08-19T15:16:12;3.88;;;2.90;;
26102;SDS011;32703;49.182;9.042;2022-08-19T15:18:39;4.38;;;2.90;;
26102;SDS011;32703;49.182;9.042;2022-08-19T15:21:09;5.32;;;3.40;;
26102;SDS011;32703;49.182;9.042;2022-08-19T15:23:37;4.32;;;3.05;;
26102;SDS011;32703;49.182;9.042;2022-08-19T15:26:03;4.68;;;2.70;;
26102;SDS011;32703;49.182;9.042;2022-08-19T15:28:31;5.80;;;2.78;;